Ethel, LA (70730)

11:56 PM CST en Enero 17, 2017 (GMT -0600)
ME0793 | | Change Station
Aviso en curso: Marine Fog Advisory

Alt 223 ft 30.79 °N, 91.09 °W | Updated 41 minutes ago

Muy nublado
Muy nublado
63.0 ° F
Sensación térmica 63.0 ° F
N
0.0
Viento Variable Viento desde ESE
Gusts 0.0 mph

Hoy
Alta -- | Baja -- ° F
--% Posibilidad de precipitaciones
Ayer
Alta -- | Baja -- ° F
Precip. -- pul
Presión 30.12 pul
Visibilidad 10.0 Millas
Nubes Muy nublado 3400 ft
Punto de rocío 62 ° F
Humedad 98%
Precipitaciones 0.00 pul
Espesor de la nieve No disponible.
7:02 AM 5:27 PM
Gibosa menguante, 66% visible
METAR KBTR 180553Z AUTO 00000KT 10SM BKN034 18/17 A3013 RMK AO2 SLP200 T01780167 10244 20172 402780172 56005 $
Presión 30.12 pul
Visibilidad 10.0 Millas
Nubes Muy nublado 3400 ft
Punto de rocío 62 ° F
Humedad 98%
Precipitaciones 0.00 pul
Espesor de la nieve No disponible.
7:02 AM 5:27 PM
Gibosa menguante, 66% visible
METAR KBTR 180553Z AUTO 00000KT 10SM BKN034 18/17 A3013 RMK AO2 SLP200 T01780167 10244 20172 402780172 56005 $

Get Your Daily Forecast Email!

Thanks for signing up!

Be on the lookout for a verification email in your inbox.

You'll start receiving the daily forecast at 8 AM.

×

10-Day Weather Forecast

Almanac

Astronomía

Jan. 17, 2017 Salida Puesta
Hora real
Crepúsculo civil
Crepúsculo náutico
Crepúsculo astronómico
Luna
Horas de luz
Horas de luz
Tomorrow will be .
, % of the Moon is Illuminated

Extremos de hoy

Máximos del estado Bajos del estado

Community

WunderPhotos

Upload Photos

1,962,540 ¡fotos cargadas!

WunderBlog® & News

Nearby

Calidad del aire

  Calidad del aire Índice AQ Contaminante
Not available.

Grosos de nieve

Estación Profundido Altura

Actividad de terremotos

Ciudad Distance Mag. Tiempo y dato
Magnitud mínima muestra es 2,5.

Temperaturas de aguas costeras

Lugar Temperatura

Stations

Estaciones meteorológicas cercanas

Ubicación de la estación Temp. Vientos helados Punto de rocío Humedad Viento Precip. Alt Actualizado Tipo
                   

Watches & Warnings

Marine Fog Advisory
Issued: 7:05 PM CST Jan. 17, 2017 – National Weather Service

... Dense fog advisory now in effect from 9 PM CST this evening
until 11 am CST Wednesday...

* visibility... one mile or less.

Precautionary/preparedness actions...

A dense fog advisory means visibilities will frequently be
reduced to less than one mile. Inexperienced mariners...
especially those operating smaller vessels should avoid
navigating in these conditions.